Terminal Aerodrome Forecast
Issued by NWS

Home | Current Version | Previous Version | Graphics & Text | Print | Product List | Glossary On
Versions: 1 2 3 4 5 6 7 8 9 10 11 12 13 14 15 16 17 18 19 20 21 22 23 24 25 26 27 28
000
FTUS45 KGGW 190700 AAA
TAFOLF
TAF AMD
KOLF 190736Z 1908/2006 00000KT P6SM SCT003
      TEMPO 1908/1910 1/2SM FZFG VV002
     FM191100 VRB03KT P6SM BCFG SCT005 OVC150
     FM191800 08006KT P6SM OVC100=

USA.gov is the U.S. government's official web portal to all federal, state and local government web resources and services.